Terminal Aerodrome Forecast
Issued by NWS

Home | Current Version | Previous Version | Text Only | Print | Product List | Glossary On
Versions: 1 2 3 4 5 6 7 8 9 10 11 12 13 14 15 16
567
FTUS42 KGSP 191620 AAA
TAFGMU
TAF AMD
KGMU 191620Z 1916/2012 27017G25KT P6SM SKC
     FM192300 35010G19KT P6SM FEW250
     FM200300 02006KT P6SM SKC=

USA.gov is the U.S. government's official web portal to all federal, state and local government web resources and services.